Cap Chat, Canada
Current Conditions -  °F | °C
As of 9:00 PM on Friday 24 Oct 2014 (Local Time) from CYBC Reporting Station
Overcast Overcast  
Wind Chill: 39°   Ceiling: 17000
Heat Index: 43°   Visibility: 9mi
Dew Point: 30°   Wind: 6mph
Humidity: 61%   Direction: 270°W
Pressure: 29.75"   Gusts: NA
Location:  49.1°N, 66.68°W
Report Text: CYBC 250100Z AUTO 27005KT 9SM OVC170 06/M01 A2975 RMK SLP075
Loading
Personal Weather Stations






























Interactive Weather Map
Tropical Storm Tracking
New forecast layout! Learn more

10-Day Weather Forecast

Advertisements
Track Severe Weather on mobile